Time;durP1;ratioP1;P1;durP2;ratioP2;P2;SDS_P1;SDS_P2;PMS_P1;PMS_P2;Temp;Humidity;BMP_temperature;BMP_pressure;BME280_temperature;BME280_humidity;BME280_pressure;Samples;Min_cycle;Max_cycle;Signal;HPM_P1;HPM_P2
2022/01/03 00:01:39;;;;;;;;;;;26.40;99.90;;;;;;5072158;28;19915;-70
2022/01/03 00:04:07;;;;;;;;;;;26.70;99.90;;;;;;5071972;28;20035;-69
2022/01/03 00:06:34;;;;;;;;;;;26.70;99.90;;;;;;5072087;28;19908;-70
2022/01/03 00:09:01;;;;;;;;;;;26.70;99.90;;;;;;5072055;28;19947;-70
2022/01/03 00:11:28;;;;;;;;;;;26.50;99.70;;;;;;5071992;28;20493;-70
2022/01/03 00:13:54;;;;;;;;;;;26.60;99.90;;;;;;5071743;28;19908;-69
2022/01/03 00:16:23;;;;;;;;;;;26.70;99.90;;;;;;5071807;28;19924;-69
2022/01/03 00:18:50;;;;;;;;;;;26.90;99.70;;;;;;5071856;28;19908;-70
2022/01/03 00:21:18;;;;;;;;;;;26.90;99.90;;;;;;5071953;28;19970;-69
2022/01/03 00:23:49;;;;;;;;;;;27.00;99.90;;;;;;5071928;28;19912;-70
2022/01/03 00:26:19;;;;;;;;;;;27.00;99.90;;;;;;5074982;28;19955;-70
2022/01/03 00:28:56;;;;;;;;;;;27.10;99.90;;;;;;5075340;28;20282;-70
2022/01/03 00:31:26;;;;;;;;;;;27.20;99.90;;;;;;5075353;28;19909;-70
2022/01/03 00:33:57;;;;;;;;;;;27.30;99.90;;;;;;5075082;28;20262;-70
2022/01/03 00:36:27;;;;;;;;;;;27.30;99.90;;;;;;5075222;28;19939;-70
2022/01/03 00:38:55;;;;;;;;;;;27.60;99.90;;;;;;5075196;28;20374;-69
2022/01/03 00:41:22;;;;;;;;;;;27.60;99.90;;;;;;5075080;28;19979;-70
2022/01/03 00:43:51;;;;;;;;;;;27.70;99.90;;;;;;5075089;28;19914;-69
2022/01/03 00:46:18;;;;;;;;;;;27.80;99.90;;;;;;5075045;28;20419;-69
2022/01/03 00:48:45;;;;;;;;;;;28.10;99.90;;;;;;5075025;28;19908;-70
2022/01/03 00:51:14;;;;;;;;;;;28.20;99.90;;;;;;5074975;28;19948;-70
2022/01/03 00:53:41;;;;;;;;;;;28.00;99.90;;;;;;5075108;28;19908;-70
2022/01/03 00:56:15;;;;;;;;;;;28.20;99.90;;;;;;5074635;28;19921;-69
2022/01/03 00:58:52;;;;;;;;;;;28.20;99.90;;;;;;5075085;28;20310;-71
2022/01/03 01:01:19;;;;;;;;;;;28.60;99.80;;;;;;5074747;28;19909;-70
2022/01/03 01:03:48;;;;;;;;;;;28.50;99.90;;;;;;5074799;28;19995;-69
2022/01/03 01:06:15;;;;;;;;;;;28.60;99.70;;;;;;5074781;28;19996;-70
2022/01/03 01:08:43;;;;;;;;;;;28.80;99.90;;;;;;5074822;28;19909;-70
2022/01/03 01:11:10;;;;;;;;;;;29.00;99.90;;;;;;5074793;28;19920;-70
2022/01/03 01:13:39;;;;;;;;;;;29.20;99.80;;;;;;5074322;28;19959;-70
2022/01/03 01:16:06;;;;;;;;;;;29.40;99.80;;;;;;5073995;28;20426;-70
2022/01/03 01:18:36;;;;;;;;;;;29.30;99.80;;;;;;5074461;28;19908;-70
2022/01/03 01:21:06;;;;;;;;;;;29.10;99.90;;;;;;5074367;28;20308;-70
2022/01/03 01:23:34;;;;;;;;;;;29.20;99.80;;;;;;5074417;28;20348;-70
2022/01/03 01:28:45;;;;;;;;;;;29.20;99.60;;;;;;5074757;28;19997;-70
2022/01/03 01:31:17;;;;;;;;;;;29.30;99.80;;;;;;5074374;28;20378;-70
2022/01/03 01:33:43;;;;;;;;;;;29.40;99.70;;;;;;5074364;28;19915;-70
2022/01/03 01:36:10;;;;;;;;;;;29.10;99.90;;;;;;5073576;28;19939;-69
2022/01/03 01:38:38;;;;;;;;;;;29.10;99.90;;;;;;5074077;28;19917;-70
2022/01/03 01:41:06;;;;;;;;;;;29.20;99.90;;;;;;5074008;28;19927;-69
2022/01/03 01:43:36;;;;;;;;;;;29.70;99.90;;;;;;5073852;28;20007;-69
2022/01/03 01:46:10;;;;;;;;;;;29.40;99.90;;;;;;5073827;28;20288;-70
2022/01/03 01:48:38;;;;;;;;;;;29.20;99.90;;;;;;5073763;28;19913;-70
2022/01/03 01:51:06;;;;;;;;;;;29.30;99.90;;;;;;5073739;28;19961;-70
2022/01/03 01:53:38;;;;;;;;;;;29.00;99.90;;;;;;5073816;28;20003;-70
2022/01/03 01:56:09;;;;;;;;;;;29.00;99.90;;;;;;5073503;28;19923;-70
2022/01/03 01:58:36;;;;;;;;;;;28.70;99.90;;;;;;5073787;28;20248;-70
2022/01/03 02:01:04;;;;;;;;;;;28.60;99.90;;;;;;5073696;28;19991;-69
2022/01/03 02:03:54;;;;;;;;;;;28.40;99.90;;;;;;5073519;28;19953;-70
2022/01/03 02:06:30;;;;;;;;;;;28.20;99.90;;;;;;5068231;28;20367;-69
2022/01/03 02:09:00;;;;;;;;;;;28.10;99.90;;;;;;5073345;28;19951;-69
2022/01/03 02:11:38;;;;;;;;;;;27.80;99.90;;;;;;5073364;28;20364;-69
2022/01/03 02:14:04;;;;;;;;;;;27.90;99.90;;;;;;5073219;28;19948;-69
2022/01/03 02:16:34;;;;;;;;;;;27.80;99.90;;;;;;5073495;28;19916;-69
2022/01/03 02:19:01;;;;;;;;;;;27.80;99.90;;;;;;5073413;28;19910;-69
2022/01/03 02:21:27;;;;;;;;;;;27.90;99.90;;;;;;5073260;28;20039;-69
2022/01/03 02:23:54;;;;;;;;;;;27.90;99.90;;;;;;5073256;28;19958;-70
2022/01/03 02:26:21;;;;;;;;;;;27.80;99.90;;;;;;5073023;28;20404;-69
2022/01/03 02:28:48;;;;;;;;;;;27.80;99.90;;;;;;5073129;28;19915;-69
2022/01/03 02:31:17;;;;;;;;;;;27.90;99.90;;;;;;5073097;27;19908;-69
2022/01/03 02:33:44;;;;;;;;;;;27.80;99.90;;;;;;5073102;28;19908;-69
2022/01/03 02:36:11;;;;;;;;;;;27.70;99.90;;;;;;5073007;28;20007;-69
2022/01/03 02:38:38;;;;;;;;;;;27.70;99.90;;;;;;5072952;28;19944;-69
2022/01/03 02:41:04;;;;;;;;;;;27.70;99.90;;;;;;5072760;28;19908;-69
2022/01/03 02:43:31;;;;;;;;;;;27.40;99.90;;;;;;5072906;28;19909;-69
2022/01/03 02:45:57;;;;;;;;;;;27.30;99.90;;;;;;5072849;28;19995;-69
2022/01/03 02:48:26;;;;;;;;;;;27.30;99.90;;;;;;5072331;28;19952;-69
2022/01/03 02:50:53;;;;;;;;;;;27.30;99.90;;;;;;5072768;28;19909;-69
2022/01/03 02:53:20;;;;;;;;;;;27.30;99.90;;;;;;5072865;28;19916;-69
2022/01/03 02:55:47;;;;;;;;;;;27.30;99.90;;;;;;5072280;28;19917;-69
2022/01/03 02:58:14;;;;;;;;;;;27.20;99.90;;;;;;5072914;28;19959;-68
2022/01/03 03:00:45;;;;;;;;;;;27.40;99.90;;;;;;5072596;28;19915;-69
2022/01/03 03:03:13;;;;;;;;;;;27.40;99.90;;;;;;5072706;28;19912;-69
2022/01/03 03:05:39;;;;;;;;;;;27.30;99.90;;;;;;5072580;28;19916;-69
2022/01/03 03:08:07;;;;;;;;;;;27.20;99.90;;;;;;5072357;28;19912;-70
2022/01/03 03:10:33;;;;;;;;;;;27.20;99.90;;;;;;5072471;28;20272;-69
2022/01/03 03:13:00;;;;;;;;;;;27.10;99.90;;;;;;5072780;28;20270;-69
2022/01/03 03:15:27;;;;;;;;;;;27.20;99.90;;;;;;5073066;28;20378;-69
2022/01/03 03:17:53;;;;;;;;;;;27.30;99.90;;;;;;5072229;28;19908;-69
2022/01/03 03:20:25;;;;;;;;;;;27.30;99.90;;;;;;5072237;28;20298;-69
2022/01/03 03:22:52;;;;;;;;;;;27.30;99.90;;;;;;5072302;28;19919;-69
2022/01/03 03:25:20;;;;;;;;;;;27.40;99.90;;;;;;5072199;28;19991;-69
2022/01/03 03:27:48;;;;;;;;;;;27.40;99.90;;;;;;5072103;28;19915;-69
2022/01/03 03:30:15;;;;;;;;;;;27.30;99.90;;;;;;5071720;28;20372;-70
2022/01/03 03:32:42;;;;;;;;;;;27.10;99.90;;;;;;5072341;28;20485;-69
2022/01/03 03:35:09;;;;;;;;;;;27.00;99.90;;;;;;5072040;28;19913;-69
2022/01/03 03:37:36;;;;;;;;;;;27.10;99.90;;;;;;5072269;28;19919;-69
2022/01/03 03:40:03;;;;;;;;;;;27.00;99.90;;;;;;5071923;28;19909;-69
2022/01/03 03:42:30;;;;;;;;;;;27.10;99.90;;;;;;5072190;28;20046;-69
2022/01/03 03:44:57;;;;;;;;;;;27.10;99.90;;;;;;5071639;28;20389;-69
2022/01/03 03:47:24;;;;;;;;;;;27.10;99.90;;;;;;5072225;28;19916;-69
2022/01/03 03:49:50;;;;;;;;;;;27.10;99.90;;;;;;5071721;28;19913;-69
2022/01/03 03:52:17;;;;;;;;;;;27.20;99.90;;;;;;5072080;28;19981;-69
2022/01/03 03:54:44;;;;;;;;;;;27.20;99.90;;;;;;5071884;28;20381;-69
2022/01/03 03:57:12;;;;;;;;;;;27.20;99.90;;;;;;5072258;28;19917;-70
2022/01/03 03:59:39;;;;;;;;;;;27.20;99.90;;;;;;5072219;28;19909;-69
2022/01/03 04:02:07;;;;;;;;;;;27.20;99.90;;;;;;5075424;28;19981;-69
2022/01/03 04:04:34;;;;;;;;;;;27.10;99.90;;;;;;5075548;28;19919;-69
2022/01/03 04:07:01;;;;;;;;;;;27.40;99.90;;;;;;5075914;28;19909;-69
2022/01/03 04:09:27;;;;;;;;;;;27.50;99.90;;;;;;5075532;28;19932;-69
2022/01/03 04:11:54;;;;;;;;;;;27.50;99.90;;;;;;5075755;28;20374;-69
2022/01/03 04:14:21;;;;;;;;;;;27.40;99.90;;;;;;5075562;28;20355;-69
2022/01/03 04:16:47;;;;;;;;;;;27.30;99.90;;;;;;5075652;28;19967;-69
2022/01/03 04:19:14;;;;;;;;;;;27.20;99.90;;;;;;5075886;28;20011;-69
2022/01/03 04:21:41;;;;;;;;;;;27.20;99.90;;;;;;5075669;28;19917;-69
2022/01/03 04:24:08;;;;;;;;;;;27.00;99.90;;;;;;5075224;28;19919;-69
2022/01/03 04:26:35;;;;;;;;;;;27.10;99.90;;;;;;5075429;28;19909;-69
2022/01/03 04:29:02;;;;;;;;;;;27.10;99.90;;;;;;5075482;28;19915;-69
2022/01/03 04:31:29;;;;;;;;;;;27.10;99.90;;;;;;5075434;28;20376;-69
2022/01/03 04:33:59;;;;;;;;;;;27.00;99.90;;;;;;5075500;28;19991;-69
2022/01/03 04:36:28;;;;;;;;;;;26.70;99.90;;;;;;5075417;28;19917;-70
2022/01/03 04:38:55;;;;;;;;;;;26.70;99.90;;;;;;5074931;28;19916;-69
2022/01/03 04:41:21;;;;;;;;;;;26.70;99.90;;;;;;5075335;28;19915;-69
2022/01/03 04:43:48;;;;;;;;;;;26.80;99.90;;;;;;5075108;28;19908;-69
2022/01/03 04:46:15;;;;;;;;;;;26.70;99.90;;;;;;5075172;28;19966;-69
2022/01/03 04:48:42;;;;;;;;;;;26.80;99.90;;;;;;5075071;28;19913;-69
2022/01/03 04:51:09;;;;;;;;;;;26.70;99.90;;;;;;5074992;28;20286;-69
2022/01/03 04:53:39;;;;;;;;;;;26.70;99.90;;;;;;5074876;28;20001;-69
2022/01/03 04:56:10;;;;;;;;;;;26.70;99.90;;;;;;5074703;28;19938;-69
2022/01/03 04:58:37;;;;;;;;;;;26.80;99.90;;;;;;5074858;28;19912;-69
2022/01/03 05:01:04;;;;;;;;;;;26.80;99.90;;;;;;5074877;28;20006;-69
2022/01/03 05:03:31;;;;;;;;;;;26.90;99.90;;;;;;5074753;28;19948;-69
2022/01/03 05:05:58;;;;;;;;;;;27.10;99.90;;;;;;5074639;28;19999;-69
2022/01/03 05:08:24;;;;;;;;;;;27.10;99.90;;;;;;5074491;28;19948;-69
2022/01/03 05:10:51;;;;;;;;;;;27.00;99.90;;;;;;5074200;28;19928;-69
2022/01/03 05:13:18;;;;;;;;;;;27.00;99.90;;;;;;5074520;28;19912;-69
2022/01/03 05:15:44;;;;;;;;;;;26.90;99.90;;;;;;5074450;28;19918;-69
2022/01/03 05:18:11;;;;;;;;;;;27.00;99.90;;;;;;5074556;28;19908;-69
2022/01/03 05:20:38;;;;;;;;;;;27.00;99.90;;;;;;5074396;28;19965;-69
2022/01/03 05:23:04;;;;;;;;;;;26.80;99.90;;;;;;5074356;28;20275;-69
2022/01/03 05:25:31;;;;;;;;;;;26.70;99.90;;;;;;5074311;28;20434;-69
2022/01/03 05:27:58;;;;;;;;;;;26.60;99.90;;;;;;5074330;28;19995;-69
2022/01/03 05:30:24;;;;;;;;;;;26.40;99.90;;;;;;5074539;28;19915;-69
2022/01/03 05:32:51;;;;;;;;;;;26.30;99.90;;;;;;5074174;28;19915;-68
2022/01/03 05:35:18;;;;;;;;;;;26.20;99.90;;;;;;5074236;28;20274;-69
2022/01/03 05:37:44;;;;;;;;;;;26.00;99.90;;;;;;5074145;28;20364;-69
2022/01/03 05:40:11;;;;;;;;;;;26.00;99.90;;;;;;5073623;28;19974;-69
2022/01/03 05:42:38;;;;;;;;;;;25.90;99.90;;;;;;5074067;28;19908;-69
2022/01/03 05:45:05;;;;;;;;;;;25.90;99.90;;;;;;5073993;28;19969;-69
2022/01/03 05:47:31;;;;;;;;;;;26.10;99.90;;;;;;5074096;28;19913;-69
2022/01/03 05:49:58;;;;;;;;;;;26.20;99.90;;;;;;5073712;28;19912;-69
2022/01/03 05:52:25;;;;;;;;;;;26.30;99.90;;;;;;5071108;28;19917;-69
2022/01/03 05:54:52;;;;;;;;;;;26.20;99.90;;;;;;5071502;28;20321;-69
2022/01/03 05:57:19;;;;;;;;;;;26.20;99.90;;;;;;5071698;28;19916;-69
2022/01/03 05:59:46;;;;;;;;;;;26.20;99.90;;;;;;5071577;28;19913;-69
2022/01/03 06:02:13;;;;;;;;;;;26.30;99.90;;;;;;5071704;28;19916;-69
2022/01/03 06:07:18;;;;;;;;;;;26.30;99.90;;;;;;5071461;28;19916;-68
2022/01/03 06:09:45;;;;;;;;;;;26.30;99.90;;;;;;5071244;28;19955;-69
2022/01/03 06:12:11;;;;;;;;;;;26.30;99.90;;;;;;5071441;28;19913;-69
2022/01/03 06:14:38;;;;;;;;;;;26.20;99.90;;;;;;5071315;28;19992;-69
2022/01/03 06:17:09;;;;;;;;;;;26.20;99.90;;;;;;5070204;28;20296;-69
2022/01/03 06:19:36;;;;;;;;;;;26.20;99.90;;;;;;5071406;28;20319;-69
2022/01/03 06:22:03;;;;;;;;;;;26.10;99.90;;;;;;5070346;28;19917;-69
2022/01/03 06:24:30;;;;;;;;;;;26.00;99.90;;;;;;5070964;28;19913;-69
2022/01/03 06:26:57;;;;;;;;;;;25.90;99.90;;;;;;5070823;28;19962;-69
2022/01/03 06:29:23;;;;;;;;;;;26.00;99.90;;;;;;5071114;28;19908;-69
2022/01/03 06:31:50;;;;;;;;;;;26.00;99.90;;;;;;5070714;28;19909;-69
2022/01/03 06:34:17;;;;;;;;;;;25.90;99.90;;;;;;5070872;28;19955;-69
2022/01/03 06:36:44;;;;;;;;;;;25.90;99.90;;;;;;5070915;28;19963;-69
2022/01/03 06:39:12;;;;;;;;;;;26.00;99.90;;;;;;5070890;28;20000;-69
2022/01/03 06:41:43;;;;;;;;;;;26.00;99.90;;;;;;5070992;28;19932;-69
2022/01/03 06:44:10;;;;;;;;;;;25.90;99.90;;;;;;5070476;28;20355;-69
2022/01/03 06:46:36;;;;;;;;;;;25.90;99.90;;;;;;5070663;28;19970;-69
2022/01/03 06:49:05;;;;;;;;;;;25.90;99.90;;;;;;5070667;28;19917;-69
2022/01/03 06:51:34;;;;;;;;;;;25.90;99.90;;;;;;5070773;28;19908;-69
2022/01/03 06:54:10;;;;;;;;;;;25.80;99.90;;;;;;5070484;28;19989;-69
2022/01/03 06:56:37;;;;;;;;;;;25.80;99.90;;;;;;5070221;28;19924;-69
2022/01/03 06:59:04;;;;;;;;;;;25.80;99.90;;;;;;5070585;28;19916;-69
2022/01/03 07:01:30;;;;;;;;;;;25.70;99.90;;;;;;5070555;28;20646;-69
2022/01/03 07:03:57;;;;;;;;;;;25.70;99.90;;;;;;5070414;28;19912;-69
2022/01/03 07:06:24;;;;;;;;;;;25.70;99.90;;;;;;5070617;28;19908;-69
2022/01/03 07:08:50;;;;;;;;;;;25.70;99.90;;;;;;5070413;28;20352;-69
2022/01/03 07:11:17;;;;;;;;;;;25.70;99.90;;;;;;5070441;28;19925;-69
2022/01/03 07:13:47;;;;;;;;;;;25.60;99.90;;;;;;5070365;28;19920;-69
2022/01/03 07:19:00;;;;;;;;;;;25.50;99.90;;;;;;5070828;28;19916;-69
2022/01/03 07:21:28;;;;;;;;;;;25.50;99.90;;;;;;5069654;28;20038;-69
2022/01/03 07:23:55;;;;;;;;;;;25.50;99.90;;;;;;5069813;28;19908;-69
2022/01/03 07:26:22;;;;;;;;;;;25.50;99.90;;;;;;5069732;28;20397;-67
2022/01/03 07:28:48;;;;;;;;;;;25.40;99.90;;;;;;5102829;28;19908;-69
2022/01/03 07:31:15;;;;;;;;;;;25.50;99.90;;;;;;5070518;28;19915;-68
2022/01/03 07:33:42;;;;;;;;;;;25.40;99.90;;;;;;5070810;28;19915;-69
2022/01/03 07:36:10;;;;;;;;;;;25.30;99.90;;;;;;5105907;28;20365;-69
2022/01/03 07:38:38;;;;;;;;;;;25.40;99.90;;;;;;5073690;28;19913;-69
2022/01/03 07:41:05;;;;;;;;;;;25.40;99.90;;;;;;5073885;28;19959;-69
2022/01/03 07:43:31;;;;;;;;;;;25.40;99.90;;;;;;5074306;28;19908;-69
2022/01/03 07:45:58;;;;;;;;;;;25.40;99.90;;;;;;5074081;28;19912;-69
2022/01/03 07:48:25;;;;;;;;;;;25.30;99.90;;;;;;5074262;28;19909;-68
2022/01/03 07:50:52;;;;;;;;;;;25.30;99.90;;;;;;5074358;28;19996;-69
2022/01/03 07:53:21;;;;;;;;;;;25.30;99.90;;;;;;5073665;28;19916;-69
2022/01/03 07:55:48;;;;;;;;;;;25.30;99.90;;;;;;5073716;28;19964;-69
2022/01/03 07:58:16;;;;;;;;;;;25.20;99.90;;;;;;5074007;28;19912;-69
2022/01/03 08:00:44;;;;;;;;;;;25.20;99.90;;;;;;5073969;28;19916;-69
2022/01/03 08:03:10;;;;;;;;;;;25.20;99.90;;;;;;5074054;28;20004;-69
2022/01/03 08:05:37;;;;;;;;;;;25.10;99.90;;;;;;5074332;28;20340;-69
2022/01/03 08:08:08;;;;;;;;;;;25.10;99.90;;;;;;5075586;28;19908;-69
2022/01/03 08:10:36;;;;;;;;;;;25.10;99.90;;;;;;5075559;28;20011;-69
2022/01/03 08:13:03;;;;;;;;;;;25.00;99.90;;;;;;5075603;28;19913;-69
2022/01/03 08:15:29;;;;;;;;;;;24.90;99.90;;;;;;5075661;28;20274;-69
2022/01/03 08:17:56;;;;;;;;;;;24.90;99.90;;;;;;5075519;28;19912;-69
2022/01/03 08:20:25;;;;;;;;;;;24.90;99.90;;;;;;5075729;28;19915;-69
2022/01/03 08:22:52;;;;;;;;;;;24.90;99.90;;;;;;5075425;28;19919;-69
2022/01/03 08:25:19;;;;;;;;;;;24.80;99.90;;;;;;5075521;28;20417;-69
2022/01/03 08:27:45;;;;;;;;;;;24.80;99.90;;;;;;5107935;28;19909;-69
2022/01/03 08:30:12;;;;;;;;;;;24.80;99.90;;;;;;5075377;28;19963;-69
2022/01/03 08:32:39;;;;;;;;;;;24.80;99.90;;;;;;5075438;28;19962;-69
2022/01/03 08:35:06;;;;;;;;;;;24.80;99.90;;;;;;5075167;28;20045;-69
2022/01/03 08:37:33;;;;;;;;;;;24.80;99.90;;;;;;5075087;28;19919;-69
2022/01/03 08:40:03;;;;;;;;;;;24.80;99.90;;;;;;5074023;28;19915;-69
2022/01/03 08:42:31;;;;;;;;;;;24.70;99.90;;;;;;5075377;28;19909;-69
2022/01/03 08:44:58;;;;;;;;;;;24.70;99.90;;;;;;5074801;28;19919;-69
2022/01/03 08:47:24;;;;;;;;;;;24.70;99.90;;;;;;5074703;28;19909;-69
2022/01/03 08:49:51;;;;;;;;;;;24.60;99.90;;;;;;5074814;28;19931;-69
2022/01/03 08:52:18;;;;;;;;;;;24.50;99.90;;;;;;5075038;28;20343;-69
2022/01/03 08:54:44;;;;;;;;;;;24.50;99.90;;;;;;5075062;28;19909;-69
2022/01/03 08:57:11;;;;;;;;;;;24.50;99.90;;;;;;5074946;28;20343;-69
2022/01/03 08:59:38;;;;;;;;;;;24.40;99.90;;;;;;5075080;28;19919;-69
2022/01/03 09:02:05;;;;;;;;;;;24.30;99.90;;;;;;5074767;28;19908;-69
2022/01/03 09:04:32;;;;;;;;;;;24.30;99.90;;;;;;5106999;27;19917;-69
2022/01/03 09:06:59;;;;;;;;;;;24.30;99.90;;;;;;5074677;28;19991;-69
2022/01/03 09:09:27;;;;;;;;;;;24.30;99.90;;;;;;5074454;28;19924;-69
2022/01/03 09:11:54;;;;;;;;;;;24.20;99.90;;;;;;5072930;28;20361;-69
2022/01/03 09:14:21;;;;;;;;;;;24.20;99.90;;;;;;5072476;28;19919;-68
2022/01/03 09:16:47;;;;;;;;;;;24.20;99.90;;;;;;5081502;28;20376;-69
2022/01/03 09:19:14;;;;;;;;;;;24.20;99.90;;;;;;5092688;28;19912;-69
2022/01/03 09:21:40;;;;;;;;;;;24.20;99.90;;;;;;5092820;28;19947;-69
2022/01/03 09:29:31;;;;;;;;;;;24.10;99.90;;;;;;5091584;28;19919;-69
2022/01/03 09:31:57;;;;;;;;;;;24.00;99.90;;;;;;5090759;28;20353;-69
2022/01/03 09:34:24;;;;;;;;;;;24.00;99.90;;;;;;5092508;28;19995;-69
2022/01/03 09:36:51;;;;;;;;;;;24.00;99.90;;;;;;5092392;28;19977;-69
2022/01/03 09:39:17;;;;;;;;;;;24.00;99.90;;;;;;5092097;28;19912;-69
2022/01/03 09:41:48;;;;;;;;;;;24.00;99.90;;;;;;5091854;28;19912;-69
2022/01/03 09:44:15;;;;;;;;;;;23.90;99.90;;;;;;5091744;28;19915;-69
2022/01/03 09:46:42;;;;;;;;;;;23.90;99.90;;;;;;5092159;28;19908;-69
2022/01/03 09:49:11;;;;;;;;;;;23.90;99.90;;;;;;5092219;28;19954;-69
2022/01/03 09:51:39;;;;;;;;;;;23.90;99.90;;;;;;5124665;27;19981;-69
2022/01/03 09:54:08;;;;;;;;;;;23.90;99.90;;;;;;5089769;28;19919;-69
2022/01/03 09:56:35;;;;;;;;;;;23.90;99.90;;;;;;5091788;28;19972;-69
2022/01/03 09:59:02;;;;;;;;;;;23.90;99.90;;;;;;5091300;28;20362;-70
2022/01/03 10:01:32;;;;;;;;;;;23.90;99.90;;;;;;5091705;28;19947;-69
2022/01/03 10:04:00;;;;;;;;;;;23.90;99.90;;;;;;5091450;28;19908;-69
2022/01/03 10:06:27;;;;;;;;;;;23.80;99.90;;;;;;5091686;28;20267;-69
2022/01/03 10:08:54;;;;;;;;;;;23.80;99.90;;;;;;5091346;28;20290;-69
2022/01/03 10:11:21;;;;;;;;;;;23.90;99.90;;;;;;5091560;28;19959;-69
2022/01/03 10:13:48;;;;;;;;;;;23.90;99.90;;;;;;5090860;28;20285;-69
2022/01/03 10:16:15;;;;;;;;;;;23.90;99.90;;;;;;5091411;28;20378;-69
2022/01/03 10:18:45;;;;;;;;;;;23.80;99.90;;;;;;5091539;28;20277;-69
2022/01/03 10:21:12;;;;;;;;;;;23.80;99.90;;;;;;5091073;28;20422;-69
2022/01/03 10:23:55;;;;;;;;;;;23.80;99.90;;;;;;5091248;28;19958;-69
2022/01/03 10:26:21;;;;;;;;;;;23.80;99.90;;;;;;5091364;28;19961;-69
2022/01/03 10:28:48;;;;;;;;;;;23.80;99.90;;;;;;5090866;28;19912;-69
2022/01/03 10:31:16;;;;;;;;;;;23.70;99.90;;;;;;5091308;28;20440;-69
2022/01/03 10:33:43;;;;;;;;;;;23.70;99.90;;;;;;5090859;28;20358;-69
2022/01/03 10:36:25;;;;;;;;;;;23.70;99.90;;;;;;5090804;28;19935;-68
2022/01/03 10:38:52;;;;;;;;;;;23.80;99.90;;;;;;5091091;28;19908;-69
2022/01/03 10:41:20;;;;;;;;;;;23.70;99.90;;;;;;5090980;28;19915;-68
2022/01/03 10:43:49;;;;;;;;;;;23.70;99.90;;;;;;5090239;28;19927;-69
2022/01/03 10:46:26;;;;;;;;;;;23.70;99.90;;;;;;5091109;28;19991;-69
2022/01/03 10:49:06;;;;;;;;;;;23.60;99.90;;;;;;5090971;28;19916;-68
2022/01/03 10:51:33;;;;;;;;;;;23.60;99.90;;;;;;5090795;28;20017;-68
2022/01/03 10:54:00;;;;;;;;;;;23.60;99.90;;;;;;5090901;28;19912;-68
2022/01/03 10:56:29;;;;;;;;;;;23.60;99.90;;;;;;5090903;28;19924;-69
2022/01/03 10:58:57;;;;;;;;;;;23.60;99.90;;;;;;5090487;28;19908;-68
2022/01/03 11:01:25;;;;;;;;;;;23.50;99.90;;;;;;5090841;28;19912;-68
2022/01/03 11:03:54;;;;;;;;;;;23.60;99.90;;;;;;5090687;28;20010;-68
2022/01/03 11:06:36;;;;;;;;;;;23.60;99.90;;;;;;5090872;28;19950;-69
2022/01/03 11:11:49;;;;;;;;;;;23.50;99.90;;;;;;5090291;28;19985;-69
2022/01/03 11:14:32;;;;;;;;;;;23.50;99.90;;;;;;5090503;28;19915;-70
2022/01/03 11:16:59;;;;;;;;;;;23.50;99.90;;;;;;5090508;28;19917;-69
2022/01/03 11:19:35;;;;;;;;;;;23.50;99.90;;;;;;5090658;28;19915;-69
2022/01/03 11:22:02;;;;;;;;;;;23.40;99.90;;;;;;5090209;28;20374;-69
2022/01/03 11:24:29;;;;;;;;;;;23.50;99.90;;;;;;5090467;28;19915;-69
2022/01/03 11:26:56;;;;;;;;;;;23.40;99.90;;;;;;5090120;28;19908;-69
2022/01/03 11:29:23;;;;;;;;;;;23.40;99.90;;;;;;5090406;28;20370;-69
2022/01/03 11:31:51;;;;;;;;;;;23.40;99.90;;;;;;5090209;28;19958;-69
2022/01/03 11:34:23;;;;;;;;;;;23.40;99.90;;;;;;5090336;28;20463;-69
2022/01/03 11:36:49;;;;;;;;;;;23.40;99.90;;;;;;5090273;28;19920;-69
2022/01/03 11:39:19;;;;;;;;;;;23.40;99.90;;;;;;5090580;28;19915;-69
2022/01/03 11:41:46;;;;;;;;;;;23.40;99.90;;;;;;5090491;28;19965;-70
2022/01/03 11:44:15;;;;;;;;;;;23.40;99.90;;;;;;5090748;28;19959;-69
2022/01/03 11:46:42;;;;;;;;;;;23.40;99.90;;;;;;5090446;28;19908;-69
2022/01/03 11:49:09;;;;;;;;;;;23.40;99.90;;;;;;5090453;28;19912;-69
2022/01/03 11:51:37;;;;;;;;;;;23.40;99.90;;;;;;5089910;28;20385;-69
2022/01/03 11:54:05;;;;;;;;;;;23.30;99.90;;;;;;5090288;28;19908;-69
2022/01/03 11:56:34;;;;;;;;;;;23.30;99.90;;;;;;5090456;28;19920;-69
2022/01/03 12:04:31;;;;;;;;;;;23.20;99.90;;;;;;5090327;28;20275;-69
2022/01/03 12:07:04;;;;;;;;;;;23.20;99.90;;;;;;5090199;28;19916;-69
2022/01/03 12:09:31;;;;;;;;;;;23.20;99.90;;;;;;5090114;28;19959;-69
2022/01/03 12:11:58;;;;;;;;;;;23.20;99.90;;;;;;5089965;28;19931;-69
2022/01/03 12:14:38;;;;;;;;;;;23.20;99.90;;;;;;5090166;28;20427;-69
2022/01/03 12:17:05;;;;;;;;;;;23.20;99.90;;;;;;5090069;28;19920;-69
2022/01/03 12:19:32;;;;;;;;;;;23.20;99.90;;;;;;5089982;28;19935;-69
2022/01/03 12:22:12;;;;;;;;;;;23.20;99.90;;;;;;5092450;28;19919;-69
2022/01/03 12:24:39;;;;;;;;;;;23.10;99.90;;;;;;5093827;28;19915;-69
2022/01/03 12:27:12;;;;;;;;;;;23.10;99.90;;;;;;5093711;28;20460;-69
2022/01/03 12:29:57;;;;;;;;;;;23.20;99.90;;;;;;5093749;28;19961;-69
2022/01/03 12:32:28;;;;;;;;;;;23.30;99.90;;;;;;5093570;28;19908;-69
2022/01/03 12:35:07;;;;;;;;;;;23.20;99.90;;;;;;5093772;28;19908;-69
2022/01/03 12:37:34;;;;;;;;;;;23.30;99.90;;;;;;5093512;28;20323;-69
2022/01/03 12:40:04;;;;;;;;;;;23.30;99.90;;;;;;5093348;28;20367;-69
2022/01/03 12:42:48;;;;;;;;;;;23.20;99.90;;;;;;5093534;28;20027;-69
2022/01/03 12:45:30;;;;;;;;;;;23.20;99.90;;;;;;5093066;28;19916;-69
2022/01/03 12:48:11;;;;;;;;;;;23.20;99.90;;;;;;5093344;28;20347;-69
2022/01/03 12:50:53;;;;;;;;;;;23.20;99.90;;;;;;5093414;28;20001;-68
2022/01/03 12:53:32;;;;;;;;;;;23.10;99.90;;;;;;5093421;28;19981;-69
2022/01/03 12:56:03;;;;;;;;;;;23.10;99.90;;;;;;5093014;28;20006;-69
2022/01/03 12:58:30;;;;;;;;;;;23.00;99.90;;;;;;5092804;28;19969;-69
2022/01/03 13:00:56;;;;;;;;;;;23.10;99.90;;;;;;5093333;28;19908;-69
2022/01/03 13:03:24;;;;;;;;;;;23.00;99.90;;;;;;5093120;28;19912;-69
2022/01/03 13:06:16;;;;;;;;;;;23.00;99.90;;;;;;5092809;28;20405;-69
2022/01/03 13:08:43;;;;;;;;;;;22.90;99.90;;;;;;5084216;28;19908;-69
2022/01/03 13:11:11;;;;;;;;;;;22.90;99.90;;;;;;5092599;28;19920;-69
2022/01/03 13:13:39;;;;;;;;;;;22.90;99.90;;;;;;5092823;28;19919;-69
2022/01/03 13:16:18;;;;;;;;;;;22.90;99.90;;;;;;5092504;28;19916;-69
2022/01/03 13:18:48;;;;;;;;;;;22.90;99.90;;;;;;5092788;28;19908;-69
2022/01/03 13:21:16;;;;;;;;;;;22.90;99.90;;;;;;5092662;28;19915;-69
2022/01/03 13:23:52;;;;;;;;;;;22.90;99.90;;;;;;5092389;28;19908;-69
2022/01/03 13:26:20;;;;;;;;;;;22.90;99.90;;;;;;5092677;28;20270;-69
2022/01/03 13:28:51;;;;;;;;;;;22.90;99.90;;;;;;5092591;28;20377;-69
2022/01/03 13:31:18;;;;;;;;;;;22.90;99.90;;;;;;5092186;28;19912;-69
2022/01/03 13:33:45;;;;;;;;;;;22.90;99.90;;;;;;5092518;28;20331;-69
2022/01/03 13:36:18;;;;;;;;;;;22.80;99.90;;;;;;5092000;28;19985;-69
2022/01/03 13:38:45;;;;;;;;;;;22.80;99.90;;;;;;5092498;28;20000;-69
2022/01/03 13:41:16;;;;;;;;;;;22.80;99.90;;;;;;5092478;28;19919;-69
2022/01/03 13:43:56;;;;;;;;;;;22.70;99.90;;;;;;5092298;28;19916;-69
2022/01/03 13:49:12;;;;;;;;;;;22.70;99.90;;;;;;5092181;28;19918;-69
2022/01/03 13:51:50;;;;;;;;;;;22.70;99.90;;;;;;5092060;28;19912;-69
2022/01/03 13:54:28;;;;;;;;;;;22.70;99.90;;;;;;5092161;28;19912;-69
2022/01/03 13:56:56;;;;;;;;;;;22.70;99.90;;;;;;5092096;28;19916;-69
2022/01/03 13:59:24;;;;;;;;;;;22.70;99.90;;;;;;5092174;28;19961;-69
2022/01/03 14:01:51;;;;;;;;;;;22.60;99.90;;;;;;5091613;28;19916;-69
2022/01/03 14:04:18;;;;;;;;;;;22.70;99.90;;;;;;5091807;28;19912;-69
2022/01/03 14:06:45;;;;;;;;;;;22.70;99.90;;;;;;5091857;28;19919;-69
2022/01/03 14:09:17;;;;;;;;;;;22.70;99.90;;;;;;5091653;28;20409;-69
2022/01/03 14:11:44;;;;;;;;;;;22.70;99.90;;;;;;5091740;28;19915;-69
2022/01/03 14:14:19;;;;;;;;;;;22.70;99.90;;;;;;5091681;28;20007;-69
2022/01/03 14:17:01;;;;;;;;;;;22.70;99.90;;;;;;5091189;28;20065;-69
2022/01/03 14:19:28;;;;;;;;;;;22.70;99.90;;;;;;5091688;28;19962;-69
2022/01/03 14:21:55;;;;;;;;;;;22.60;99.90;;;;;;5091261;28;19954;-69
2022/01/03 14:24:24;;;;;;;;;;;22.60;99.90;;;;;;5091489;28;19915;-69
2022/01/03 14:26:55;;;;;;;;;;;22.60;99.90;;;;;;5091486;28;19908;-69
2022/01/03 14:29:22;;;;;;;;;;;22.60;99.90;;;;;;5091096;28;20371;-69
2022/01/03 14:31:50;;;;;;;;;;;22.70;99.90;;;;;;5091283;28;19919;-69
2022/01/03 14:34:18;;;;;;;;;;;22.70;99.90;;;;;;5091394;28;19961;-69
2022/01/03 14:36:45;;;;;;;;;;;22.70;99.90;;;;;;5091231;28;19916;-69
2022/01/03 14:39:12;;;;;;;;;;;22.60;99.90;;;;;;5091422;28;20504;-69
2022/01/03 14:41:39;;;;;;;;;;;22.60;99.90;;;;;;5090946;28;19930;-69
2022/01/03 14:44:07;;;;;;;;;;;22.60;99.90;;;;;;5090154;28;19912;-69
2022/01/03 14:46:35;;;;;;;;;;;22.60;99.90;;;;;;5091228;28;19927;-69
2022/01/03 14:49:03;;;;;;;;;;;22.60;99.90;;;;;;5091202;28;20367;-69